Líbí se Vám tento web? Budeme velmi rádi, pokud přidáte hodnocení +1

Seznam meteostanic a jejich METAR

Vyhledat místa podle abecedy:
A B C D E F G H I J K L M N O P Q R S T U V W X Y Z

Filtrovat:

ID stanice:
a/nebo
Název místa (fulltext):
 
Místo (ID)Naposledy načteno 
Wake Island (PWAK) 20.01.2018 02:58 UTC Zobrazit METAR
PWAK 200258Z AUTO 04013KT 9999 SCT021 BKN030 28/24 A2984 RMK AO2 SLP111 57021
Warsaw (EPWA) 20.01.2018 03:00 UTC Zobrazit METAR
EPWA 200300Z 27004KT 250V310 9999 FEW009 SCT020 00/M01 Q1009 R33/2///95 NOSIG
Washington (KIAD) 20.01.2018 02:52 UTC Zobrazit METAR
KIAD 200252Z 00000KT 10SM CLR M02/M09 A3004 RMK AO2 SLP173 T10171094 50001
Wellington (NZWN) 20.01.2018 01:00 UTC Zobrazit METAR
NZWN 200100Z AUTO 02020G30KT 9999 SCT035/// 24/17 Q1015 NOSIG
Windhoek (FYWH) 19.01.2018 11:00 UTC Zobrazit METAR
FYWH 191100Z 10005KT 9999 SCT045 30/06 Q1020 BECMG SCT040TCU
Wroclaw (EPWR) 20.01.2018 03:00 UTC Zobrazit METAR
EPWR 200300Z 24006KT 9999 -SN FEW023 BKN040 01/M02 Q1010
Reklama

Počasí na Váš email

Emaily jsou bez reklamy a bez spamu



Odhlásit newsletter

Reklama


Lunární kalendář

  • 24.01.
  • 31.01.
  • 07.02.
  • 15.02.



Jsme na Google Plus

Reklama
Povinné ručení



Může Vás také zajímat:


Reklama